createdAt,value
2023-05-03T00:00:13.765Z,58.21
2023-05-03T00:02:44.687Z,57.65
2023-05-03T00:05:14.958Z,58.67
2023-05-03T00:07:44.885Z,58.72
2023-05-03T00:10:15.858Z,58.47
2023-05-03T00:12:45.084Z,59.63
2023-05-03T00:15:14.460Z,60.13
2023-05-03T00:17:42.380Z,59.00
2023-05-03T00:20:12.253Z,58.69
2023-05-03T00:22:40.163Z,58.50
2023-05-03T00:25:10.317Z,58.81
2023-05-03T00:27:38.585Z,58.55
2023-05-03T00:30:08.494Z,58.92
2023-05-03T00:32:38.617Z,58.90
2023-05-03T00:35:07.388Z,59.22
2023-05-03T00:37:35.788Z,59.30
2023-05-03T00:40:04.097Z,58.74
2023-05-03T00:42:35.333Z,59.31
2023-05-03T00:45:05.039Z,59.40
2023-05-03T00:47:33.604Z,59.12
2023-05-03T00:50:03.535Z,59.85
2023-05-03T00:52:32.493Z,59.28
2023-05-03T00:55:01.679Z,60.08
2023-05-03T00:57:31.420Z,60.16
2023-05-03T00:59:59.852Z,59.78
2023-05-03T01:02:28.336Z,60.80
2023-05-03T01:04:56.870Z,60.82
2023-05-03T01:07:37.846Z,60.02
2023-05-03T01:10:14.006Z,59.92
2023-05-03T01:12:50.289Z,60.37
2023-05-03T01:15:27.170Z,60.66
2023-05-03T01:18:03.116Z,60.45
2023-05-03T01:20:35.663Z,60.49
2023-05-03T01:23:12.771Z,60.14
2023-05-03T01:25:42.102Z,60.79
2023-05-03T01:28:10.001Z,61.71
2023-05-03T01:30:39.916Z,61.02
2023-05-03T01:33:14.940Z,61.33
2023-05-03T01:35:48.726Z,61.03
2023-05-03T01:38:18.688Z,61.10
2023-05-03T01:40:52.269Z,61.03
2023-05-03T01:43:21.965Z,61.92
2023-05-03T01:45:50.531Z,62.19
2023-05-03T01:48:19.920Z,61.73
2023-05-03T01:50:47.957Z,62.17
2023-05-03T01:53:15.836Z,61.81
2023-05-03T01:55:43.916Z,62.22
2023-05-03T01:58:14.464Z,62.10
2023-05-03T02:00:42.532Z,62.17
2023-05-03T02:03:10.513Z,61.49
2023-05-03T02:05:38.500Z,61.94
2023-05-03T02:08:06.365Z,61.30
2023-05-03T02:10:34.340Z,61.30
2023-05-03T02:13:02.218Z,61.63
2023-05-03T02:15:32.125Z,61.88
2023-05-03T02:18:02.716Z,61.23
2023-05-03T02:20:35.369Z,61.76
2023-05-03T02:23:03.441Z,61.12
2023-05-03T02:25:31.536Z,60.68
2023-05-03T02:27:59.479Z,59.88
2023-05-03T02:30:27.546Z,60.08
2023-05-03T02:32:57.080Z,59.05
2023-05-03T02:35:25.034Z,59.34
2023-05-03T02:37:52.969Z,59.83
2023-05-03T02:40:21.760Z,59.14
2023-05-03T02:42:49.730Z,59.80
2023-05-03T02:45:21.118Z,59.75
2023-05-03T02:47:49.033Z,59.74
2023-05-03T02:50:18.573Z,59.84
2023-05-03T02:52:46.784Z,59.84
2023-05-03T02:55:15.107Z,60.01
2023-05-03T02:57:43.184Z,59.71
2023-05-03T03:00:15.422Z,60.64
2023-05-03T03:02:43.485Z,60.59
2023-05-03T03:05:12.000Z,60.69
2023-05-03T03:07:41.635Z,60.85
2023-05-03T03:10:10.538Z,60.96
2023-05-03T03:12:38.849Z,61.18
2023-05-03T03:15:08.286Z,61.97
2023-05-03T03:17:39.050Z,61.35
2023-05-03T03:20:11.686Z,61.30
2023-05-03T03:22:41.169Z,61.48
2023-05-03T03:25:10.157Z,61.57
2023-05-03T03:27:39.841Z,61.33
2023-05-03T03:30:09.612Z,61.41
2023-05-03T03:32:37.646Z,60.90
2023-05-03T03:35:06.565Z,60.73
2023-05-03T03:37:34.480Z,61.25
2023-05-03T03:40:04.100Z,61.12
2023-05-03T03:42:32.236Z,60.66
2023-05-03T03:45:00.199Z,61.05
2023-05-03T03:47:28.394Z,60.50
2023-05-03T03:49:56.352Z,61.38
2023-05-03T03:52:24.326Z,61.14
2023-05-03T03:54:52.262Z,60.67
2023-05-03T03:57:21.597Z,61.71
2023-05-03T03:59:49.463Z,61.64
2023-05-03T04:02:17.408Z,61.36
2023-05-03T04:04:45.657Z,60.97
2023-05-03T04:07:13.551Z,60.68
2023-05-03T04:09:41.495Z,60.69
2023-05-03T04:12:09.995Z,60.71
2023-05-03T04:14:39.560Z,61.54
2023-05-03T04:17:07.586Z,61.37
2023-05-03T04:19:35.614Z,61.24
2023-05-03T04:22:03.953Z,61.14
2023-05-03T04:24:31.878Z,61.72
2023-05-03T04:27:02.134Z,60.91
2023-05-03T04:29:30.062Z,60.71
2023-05-03T04:32:01.329Z,60.88
2023-05-03T04:34:30.431Z,61.08
2023-05-03T04:36:58.436Z,61.08
2023-05-03T04:39:26.330Z,60.72
2023-05-03T04:41:54.253Z,60.68
2023-05-03T04:44:22.400Z,60.28
2023-05-03T04:46:51.261Z,61.04
2023-05-03T04:49:20.646Z,60.72
2023-05-03T04:51:51.528Z,60.28
2023-05-03T04:54:19.442Z,59.99
2023-05-03T04:56:48.060Z,59.97
2023-05-03T04:59:15.953Z,59.38
2023-05-03T05:01:43.980Z,59.15
2023-05-03T05:04:11.957Z,59.23
2023-05-03T05:06:42.433Z,59.14
2023-05-03T05:09:22.425Z,59.09
2023-05-03T05:11:50.601Z,58.89
2023-05-03T05:14:18.516Z,58.68
2023-05-03T05:16:47.218Z,58.11
2023-05-03T05:19:15.261Z,58.72
2023-05-03T05:21:44.485Z,58.79
2023-05-03T05:24:12.536Z,58.69
2023-05-03T05:26:40.814Z,57.59
2023-05-03T05:29:09.010Z,57.62
2023-05-03T05:31:37.627Z,56.86
2023-05-03T05:34:05.600Z,57.22
2023-05-03T05:36:33.480Z,56.73
2023-05-03T05:39:03.840Z,56.59
2023-05-03T05:41:31.800Z,55.69
2023-05-03T05:43:59.961Z,55.12
2023-05-03T05:46:28.193Z,55.13
2023-05-03T05:48:56.293Z,54.78
2023-05-03T05:51:24.479Z,54.69
2023-05-03T05:53:52.636Z,54.74
2023-05-03T05:56:22.168Z,54.71
2023-05-03T05:58:50.360Z,54.26
2023-05-03T06:01:18.483Z,54.33
2023-05-03T06:03:46.553Z,53.61
2023-05-03T06:06:14.722Z,52.72
2023-05-03T06:08:42.771Z,51.87
2023-05-03T06:11:14.153Z,50.25
2023-05-03T06:13:43.986Z,50.77
2023-05-03T06:16:12.668Z,50.89
2023-05-03T06:18:40.807Z,49.36
2023-05-03T06:21:09.863Z,48.07
2023-05-03T06:23:39.673Z,47.17
2023-05-03T06:26:08.765Z,47.16
2023-05-03T06:28:36.999Z,46.25
2023-05-03T06:31:06.555Z,46.34
2023-05-03T06:33:34.462Z,45.16
2023-05-03T06:36:02.436Z,45.87
2023-05-03T06:38:30.312Z,45.16
2023-05-03T06:40:58.234Z,43.56
2023-05-03T06:43:26.259Z,43.78
2023-05-03T06:45:54.204Z,45.30
2023-05-03T06:48:23.610Z,45.42
2023-05-03T06:50:51.786Z,43.91
2023-05-03T06:53:19.695Z,40.05
2023-05-03T06:55:47.677Z,36.85
2023-05-03T06:58:16.794Z,36.21
2023-05-03T07:00:44.707Z,37.10
2023-05-03T07:03:12.726Z,36.96
2023-05-03T07:05:42.170Z,37.39
2023-05-03T07:08:10.042Z,37.74
2023-05-03T07:10:38.072Z,38.43
2023-05-03T07:13:06.003Z,40.06
2023-05-03T07:15:34.097Z,40.30
2023-05-03T07:18:02.058Z,40.86
2023-05-03T07:20:30.312Z,41.54
2023-05-03T07:23:01.616Z,41.09
2023-05-03T07:25:29.598Z,41.18
2023-05-03T07:27:57.641Z,40.22
2023-05-03T07:30:25.758Z,40.69
2023-05-03T07:32:53.833Z,37.66
2023-05-03T07:35:23.250Z,37.36
2023-05-03T07:37:51.101Z,39.11
2023-05-03T07:40:20.626Z,38.59
2023-05-03T07:42:48.545Z,38.97
2023-05-03T07:45:16.447Z,39.06
2023-05-03T07:47:44.436Z,39.03
2023-05-03T07:50:12.474Z,39.33
2023-05-03T07:52:42.428Z,38.39
2023-05-03T07:55:10.907Z,38.97
2023-05-03T07:57:40.168Z,38.82
2023-05-03T08:00:11.214Z,38.54
2023-05-03T08:02:39.338Z,38.39
2023-05-03T08:05:09.734Z,38.53
2023-05-03T08:07:37.976Z,38.26
2023-05-03T08:10:06.697Z,38.24
2023-05-03T08:12:34.686Z,38.32
2023-05-03T08:15:07.226Z,37.79
2023-05-03T08:17:41.888Z,38.48
2023-05-03T08:20:11.262Z,38.02
2023-05-03T08:22:40.535Z,37.28
2023-05-03T08:25:10.038Z,37.61
2023-05-03T08:27:39.137Z,37.41
2023-05-03T08:30:10.764Z,34.00
2023-05-03T08:32:38.746Z,34.32
2023-05-03T08:35:07.597Z,34.81
2023-05-03T08:37:41.865Z,35.24
2023-05-03T08:40:12.172Z,36.43
2023-05-03T08:42:41.679Z,37.04
2023-05-03T08:45:14.856Z,36.44
2023-05-03T08:47:45.104Z,36.89
2023-05-03T08:50:15.107Z,37.18
2023-05-03T08:52:44.292Z,37.06
2023-05-03T08:55:13.116Z,37.52
2023-05-03T08:57:41.586Z,37.20
2023-05-03T09:00:13.342Z,35.95
2023-05-03T09:02:43.161Z,36.10
2023-05-03T09:05:34.147Z,36.38
2023-05-03T09:08:03.785Z,36.05
2023-05-03T09:10:31.747Z,36.20
2023-05-03T09:13:01.286Z,36.06
2023-05-03T09:15:30.653Z,36.20
2023-05-03T09:18:10.671Z,35.04
2023-05-03T09:20:40.955Z,34.59
2023-05-03T09:23:09.873Z,31.63
2023-05-03T09:25:48.875Z,28.97
2023-05-03T09:28:18.035Z,28.25
2023-05-03T09:30:46.477Z,30.38
2023-05-03T09:33:21.140Z,31.83
2023-05-03T09:35:59.615Z,32.97
2023-05-03T09:38:29.171Z,33.28
2023-05-03T09:40:57.571Z,34.44
2023-05-03T09:43:25.718Z,35.02
2023-05-03T09:45:53.974Z,35.27
2023-05-03T09:48:27.187Z,35.29
2023-05-03T09:50:55.353Z,35.23
2023-05-03T09:53:23.813Z,35.08
2023-05-03T09:55:52.916Z,36.08
2023-05-03T09:58:22.177Z,35.63
2023-05-03T10:00:52.608Z,35.03
2023-05-03T10:03:29.495Z,35.29
2023-05-03T10:05:58.284Z,34.76
2023-05-03T10:08:34.347Z,34.83
2023-05-03T10:11:04.857Z,35.70
2023-05-03T10:13:33.140Z,35.15
2023-05-03T10:16:06.681Z,35.10
2023-05-03T10:18:42.446Z,34.67
2023-05-03T10:21:16.072Z,34.29
2023-05-03T10:24:11.259Z,33.49
2023-05-03T10:26:40.959Z,32.98
2023-05-03T10:29:49.568Z,33.86
2023-05-03T10:32:39.835Z,33.20
2023-05-03T10:35:11.742Z,33.51
2023-05-03T10:37:42.531Z,34.24
2023-05-03T10:40:13.802Z,34.74
2023-05-03T10:42:45.593Z,33.92
2023-05-03T10:45:23.873Z,34.36
2023-05-03T10:48:20.590Z,34.18
2023-05-03T10:50:51.702Z,34.46
2023-05-03T10:53:40.136Z,35.21
2023-05-03T10:56:09.349Z,34.78
2023-05-03T10:58:39.301Z,34.32
2023-05-03T11:01:08.354Z,34.78
2023-05-03T11:03:45.677Z,33.88
2023-05-03T11:09:08.360Z,33.82
2023-05-03T11:11:39.350Z,34.78
2023-05-03T11:14:08.391Z,33.25
2023-05-03T11:16:36.666Z,33.71
2023-05-03T11:19:04.738Z,35.42
2023-05-03T11:21:33.766Z,33.89
2023-05-03T11:24:03.087Z,35.18
2023-05-03T11:26:37.180Z,34.27
2023-05-03T11:29:05.197Z,35.03
2023-05-03T11:31:35.795Z,33.69
2023-05-03T11:34:04.264Z,33.61
2023-05-03T11:36:38.756Z,33.68
2023-05-03T11:39:16.199Z,35.05
2023-05-03T11:41:46.446Z,34.77
2023-05-03T11:44:17.875Z,34.49
2023-05-03T11:46:48.487Z,34.94
2023-05-03T11:49:20.177Z,34.76
2023-05-03T11:51:50.980Z,35.37
2023-05-03T11:54:26.162Z,35.52
2023-05-03T11:57:00.007Z,36.51
2023-05-03T11:59:39.156Z,35.97
2023-05-03T12:02:09.385Z,36.01
2023-05-03T12:04:41.561Z,35.89
2023-05-03T12:07:11.040Z,35.33
2023-05-03T12:09:40.359Z,35.51
2023-05-03T12:12:13.603Z,35.30
2023-05-03T12:15:03.548Z,35.05
2023-05-03T12:17:38.344Z,35.80
2023-05-03T12:20:51.852Z,36.49
2023-05-03T12:23:09.863Z,36.38
2023-05-03T12:25:40.153Z,36.71
2023-05-03T12:28:20.498Z,36.85
2023-05-03T12:30:52.020Z,35.93
2023-05-03T12:33:22.853Z,36.51
2023-05-03T12:35:53.401Z,35.64
2023-05-03T12:38:24.001Z,36.10
2023-05-03T12:40:54.574Z,35.44
2023-05-03T12:43:24.191Z,35.42
2023-05-03T12:46:08.019Z,36.24
2023-05-03T12:48:37.946Z,35.45
2023-05-03T12:51:19.523Z,35.49
2023-05-03T12:53:54.225Z,35.39
2023-05-03T12:56:24.594Z,35.47
2023-05-03T13:04:16.539Z,35.39
2023-05-03T13:06:45.032Z,35.29
2023-05-03T13:09:20.597Z,34.43
2023-05-03T13:11:51.114Z,34.53
2023-05-03T13:14:20.792Z,34.67
2023-05-03T13:16:49.322Z,34.64
2023-05-03T13:19:17.452Z,34.71
2023-05-03T13:21:47.802Z,35.17
2023-05-03T13:24:15.707Z,35.07
2023-05-03T13:26:43.648Z,35.10
2023-05-03T13:29:11.634Z,35.31
2023-05-03T13:31:42.380Z,35.33
2023-05-03T13:34:10.371Z,35.09
2023-05-03T13:36:38.492Z,34.42
2023-05-03T13:39:09.645Z,34.51
2023-05-03T13:41:40.814Z,35.13
2023-05-03T13:44:09.442Z,34.93
2023-05-03T13:46:38.237Z,35.46
2023-05-03T13:49:08.625Z,35.08
2023-05-03T13:51:36.960Z,35.49
2023-05-03T13:54:06.539Z,35.57
2023-05-03T13:56:34.897Z,35.37
2023-05-03T13:59:02.946Z,35.54
2023-05-03T14:01:30.962Z,35.43
2023-05-03T14:03:59.424Z,35.52
2023-05-03T14:06:31.135Z,35.16
2023-05-03T14:09:01.993Z,35.14
2023-05-03T14:11:31.567Z,35.50
2023-05-03T14:14:00.388Z,35.96
2023-05-03T14:19:00.679Z,35.18
2023-05-03T14:21:31.992Z,35.86
2023-05-03T14:24:00.134Z,35.94
2023-05-03T14:26:29.486Z,35.62
2023-05-03T14:28:57.881Z,36.11
2023-05-03T14:31:25.760Z,35.22
2023-05-03T14:33:53.681Z,35.27
2023-05-03T14:36:21.727Z,35.23
2023-05-03T14:38:51.002Z,34.90
2023-05-03T14:41:18.953Z,35.50
2023-05-03T14:43:47.424Z,35.18
2023-05-03T14:46:16.402Z,34.85
2023-05-03T14:48:44.448Z,34.88
2023-05-03T14:51:13.366Z,35.19
2023-05-03T14:53:41.269Z,35.39
2023-05-03T14:56:10.939Z,35.65
2023-05-03T14:58:38.812Z,35.56
2023-05-03T15:01:06.812Z,36.14
2023-05-03T15:03:35.165Z,35.80
2023-05-03T15:06:03.551Z,35.72
2023-05-03T15:08:31.488Z,36.34
2023-05-03T15:10:59.502Z,36.69
2023-05-03T15:13:29.057Z,36.55
2023-05-03T15:15:57.491Z,36.57
2023-05-03T15:18:27.382Z,36.92
2023-05-03T15:20:55.560Z,36.77
2023-05-03T15:23:23.980Z,36.79
2023-05-03T15:25:52.157Z,36.82
2023-05-03T15:28:21.039Z,36.61
2023-05-03T15:30:50.819Z,37.00
2023-05-03T15:33:19.006Z,36.71
2023-05-03T15:35:46.928Z,37.32
2023-05-03T15:38:14.780Z,36.82
2023-05-03T15:40:42.761Z,36.70
2023-05-03T15:43:10.867Z,37.07
2023-05-03T15:45:38.903Z,36.67
2023-05-03T15:48:08.409Z,36.97
2023-05-03T15:50:36.434Z,36.70
2023-05-03T15:53:04.558Z,36.36
2023-05-03T15:55:32.441Z,36.75
2023-05-03T15:58:00.376Z,36.85
2023-05-03T16:00:28.194Z,37.23
2023-05-03T16:02:57.448Z,38.21
2023-05-03T16:05:27.394Z,37.92
2023-05-03T16:07:55.342Z,37.91
2023-05-03T16:10:24.863Z,37.75
2023-05-03T16:12:53.155Z,37.93
2023-05-03T16:15:21.130Z,38.76
2023-05-03T16:17:49.447Z,38.34
2023-05-03T16:20:17.395Z,38.74
2023-05-03T16:22:48.209Z,38.81
2023-05-03T16:25:16.736Z,38.30
2023-05-03T16:27:44.663Z,39.24
2023-05-03T16:30:14.414Z,39.05
2023-05-03T16:32:42.734Z,38.28
2023-05-03T16:35:11.090Z,38.46
2023-05-03T16:37:39.018Z,39.22
2023-05-03T16:40:12.158Z,38.87
2023-05-03T16:42:40.920Z,39.08
2023-05-03T16:45:11.057Z,39.54
2023-05-03T16:47:39.558Z,39.71
2023-05-03T16:50:08.886Z,39.43
2023-05-03T16:52:39.905Z,39.14
2023-05-03T16:55:11.159Z,39.83
2023-05-03T16:57:39.869Z,39.59
2023-05-03T17:00:10.172Z,39.62
2023-05-03T17:02:39.186Z,39.42
2023-05-03T17:05:08.584Z,40.05
2023-05-03T17:07:36.962Z,39.92
2023-05-03T17:10:06.452Z,39.82
2023-05-03T17:12:36.262Z,39.33
2023-05-03T17:15:04.642Z,39.64
2023-05-03T17:17:33.483Z,39.54
2023-05-03T17:20:01.647Z,39.50
2023-05-03T17:22:29.548Z,39.34
2023-05-03T17:24:58.315Z,39.91
2023-05-03T17:27:26.315Z,40.09
2023-05-03T17:29:57.435Z,39.78
2023-05-03T17:32:25.502Z,40.29
2023-05-03T17:34:53.393Z,40.68
2023-05-03T17:37:23.255Z,41.03
2023-05-03T17:39:51.141Z,41.55
2023-05-03T17:42:19.313Z,41.97
2023-05-03T17:44:47.766Z,41.54
2023-05-03T17:47:17.511Z,41.91
2023-05-03T17:49:45.548Z,41.53
2023-05-03T17:52:13.832Z,41.70
2023-05-03T17:54:42.276Z,41.53
2023-05-03T17:57:11.113Z,42.62
2023-05-03T17:59:39.093Z,42.71
2023-05-03T18:02:07.455Z,42.41
2023-05-03T18:04:36.938Z,42.82
2023-05-03T18:07:04.962Z,42.77
2023-05-03T18:09:33.754Z,42.85
2023-05-03T18:12:03.672Z,43.29
2023-05-03T18:14:31.961Z,43.37
2023-05-03T18:16:59.927Z,43.14
2023-05-03T18:19:28.389Z,43.62
2023-05-03T18:21:57.672Z,43.85
2023-05-03T18:24:25.621Z,43.92
2023-05-03T18:26:53.663Z,44.22
2023-05-03T18:29:21.533Z,44.65
2023-05-03T18:31:49.464Z,44.59
2023-05-03T18:34:17.485Z,44.99
2023-05-03T18:36:45.378Z,44.88
2023-05-03T18:39:17.980Z,45.03
2023-05-03T18:41:45.830Z,45.24
2023-05-03T18:44:14.038Z,45.33
2023-05-03T18:46:42.005Z,45.64
2023-05-03T18:49:09.985Z,45.78
2023-05-03T18:51:38.593Z,45.85
2023-05-03T18:54:06.661Z,46.33
2023-05-03T18:56:35.970Z,46.13
2023-05-03T18:59:03.852Z,46.69
2023-05-03T19:01:31.913Z,46.65
2023-05-03T19:03:59.882Z,46.70
2023-05-03T19:06:28.254Z,47.07
2023-05-03T19:08:56.452Z,47.55
2023-05-03T19:11:27.006Z,47.81
2023-05-03T19:13:56.468Z,48.35
2023-05-03T19:16:24.420Z,48.18
2023-05-03T19:18:52.223Z,48.24
2023-05-03T19:21:20.590Z,48.28
2023-05-03T19:23:48.852Z,48.73
2023-05-03T19:26:16.759Z,49.08
2023-05-03T19:28:44.899Z,49.36
2023-05-03T19:31:14.929Z,49.16
2023-05-03T19:33:42.929Z,49.12
2023-05-03T19:36:14.830Z,49.14
2023-05-03T19:38:42.802Z,49.31
2023-05-03T19:41:12.341Z,49.59
2023-05-03T19:43:40.909Z,49.58
2023-05-03T19:46:08.921Z,49.66
2023-05-03T19:48:38.233Z,50.11
2023-05-03T19:51:06.459Z,50.14
2023-05-03T19:53:34.829Z,49.67
2023-05-03T19:56:03.980Z,49.92
2023-05-03T19:58:32.264Z,49.49
2023-05-03T20:01:00.460Z,50.37
2023-05-03T20:03:28.831Z,50.20
2023-05-03T20:05:58.528Z,50.23
2023-05-03T20:08:27.115Z,50.04
2023-05-03T20:10:56.472Z,50.66
2023-05-03T20:13:26.264Z,50.67
2023-05-03T20:15:54.298Z,50.82
2023-05-03T20:18:22.139Z,50.84
2023-05-03T20:20:50.089Z,51.02
2023-05-03T20:23:19.530Z,51.27
2023-05-03T20:25:47.394Z,51.49
2023-05-03T20:28:15.453Z,51.98
2023-05-03T20:30:43.400Z,52.00
2023-05-03T20:33:13.268Z,52.07
2023-05-03T20:35:41.331Z,51.79
2023-05-03T20:38:09.195Z,51.84
2023-05-03T20:40:38.463Z,52.53
2023-05-03T20:43:06.405Z,52.47
2023-05-03T20:45:34.381Z,52.47
2023-05-03T20:48:02.359Z,52.51
2023-05-03T20:50:30.609Z,52.77
2023-05-03T20:52:58.461Z,52.82
2023-05-03T20:55:26.314Z,53.22
2023-05-03T20:57:55.647Z,53.06
2023-05-03T21:00:24.724Z,53.06
2023-05-03T21:02:54.456Z,53.32
2023-05-03T21:05:22.949Z,53.08
2023-05-03T21:07:50.854Z,52.97
2023-05-03T21:10:18.717Z,53.48
2023-05-03T21:12:47.637Z,53.79
2023-05-03T21:15:16.998Z,53.71
2023-05-03T21:17:44.891Z,53.41
2023-05-03T21:20:13.580Z,53.74
2023-05-03T21:22:41.484Z,53.59
2023-05-03T21:25:10.354Z,54.19
2023-05-03T21:27:38.321Z,54.34
2023-05-03T21:30:07.507Z,55.02
2023-05-03T21:32:37.036Z,55.30
2023-05-03T21:35:05.424Z,55.23
2023-05-03T21:37:33.372Z,54.90
2023-05-03T21:40:02.404Z,54.94
2023-05-03T21:42:31.013Z,55.41
2023-05-03T21:44:59.071Z,55.15
2023-05-03T21:47:27.585Z,55.51
2023-05-03T21:49:57.590Z,55.79
2023-05-03T21:52:25.526Z,56.22
2023-05-03T21:54:53.591Z,56.43
2023-05-03T21:57:21.592Z,56.68
2023-05-03T21:59:50.335Z,56.75
2023-05-03T22:02:18.263Z,56.84
2023-05-03T22:04:47.070Z,56.90
2023-05-03T22:07:16.556Z,57.10
2023-05-03T22:09:47.981Z,57.30
2023-05-03T22:14:47.576Z,58.12
2023-05-03T22:17:15.475Z,57.85
2023-05-03T22:19:43.351Z,58.22
2023-05-03T22:22:11.554Z,58.37
2023-05-03T22:24:41.237Z,58.18
2023-05-03T22:27:09.180Z,58.19
2023-05-03T22:29:37.556Z,58.69
2023-05-03T22:32:06.654Z,58.89
2023-05-03T22:34:34.871Z,59.04
2023-05-03T22:37:03.192Z,59.92
2023-05-03T22:39:31.045Z,59.74
2023-05-03T22:42:00.868Z,59.03
2023-05-03T22:44:29.045Z,59.70
2023-05-03T22:46:56.857Z,60.10
2023-05-03T22:49:25.409Z,59.88
2023-05-03T22:51:53.314Z,59.49
2023-05-03T22:54:21.884Z,59.74
2023-05-03T22:56:51.119Z,60.07
2023-05-03T22:59:20.456Z,61.26
2023-05-03T23:01:49.577Z,60.60
2023-05-03T23:04:17.855Z,60.60
2023-05-03T23:06:46.179Z,60.34
2023-05-03T23:09:14.089Z,60.95
2023-05-03T23:11:42.138Z,61.46
2023-05-03T23:14:10.151Z,61.30
2023-05-03T23:16:39.866Z,61.28
2023-05-03T23:19:08.303Z,61.32
2023-05-03T23:21:36.275Z,61.43
2023-05-03T23:24:04.193Z,61.14
2023-05-03T23:26:32.105Z,61.12
2023-05-03T23:29:00.907Z,60.95
2023-05-03T23:31:31.678Z,61.91
2023-05-03T23:34:05.106Z,61.38
2023-05-03T23:36:34.182Z,61.10
2023-05-03T23:39:02.888Z,61.32
2023-05-03T23:41:30.976Z,61.47
2023-05-03T23:43:58.798Z,60.90
2023-05-03T23:46:26.858Z,61.71
2023-05-03T23:48:54.977Z,61.54
2023-05-03T23:51:24.961Z,61.59
2023-05-03T23:53:52.865Z,61.91
2023-05-03T23:56:20.832Z,61.64
2023-05-03T23:58:48.780Z,61.64
